Data for 01/10/2013

Time Sea-Level Adjusted Pressure Absolute Pressure Temperature Relative Humidity Dew Point   
(mb) (inHg) (mb) (inHg) (C) (F) (%) (C) (F)
00:05 1007 29.74 836 24.69 4 39.2 43 -7.6 18.3
00:10 1007 29.74 836 24.69 4.3 39.7 43 -7.2 19.1
00:15 1007 29.74 836 24.69 4.4 39.9 42 -7.5 18.5
00:20 1007 29.74 836 24.69 4.6 40.3 42 -7.3 18.9
00:25 1007 29.74 836 24.69 4.5 40.1 42 -7.2 19
00:30 1007 29.74 836 24.69 4.4 40 41 -7.5 18.4
00:35 1007 29.74 836 24.69 4.7 40.5 40 -7.9 17.8
00:40 1007 29.74 836 24.69 4.8 40.6 41 -7.2 19
00:45 1007 29.74 836 24.69 4.5 40.2 41 -7.7 18.1
00:50 1007 29.74 836 24.69 4.6 40.3 40 -7.8 18
00:55 1006 29.71 836 24.69 4.5 40.1 41 -7.7 18.1
01:00 1006 29.71 836 24.69 4.4 39.9 41 -7.6 18.3
01:05 1006 29.71 835 24.66 4.4 39.9 41 -7.7 18.1
01:10 1006 29.71 835 24.66 4.3 39.8 41 -7.8 18
01:15 1006 29.71 835 24.66 4.5 40.2 39 -8.2 17.2
01:20 1006 29.71 835 24.66 4.6 40.2 41 -7.7 18.2
01:25 1006 29.71 835 24.66 4.5 40.1 40 -7.8 17.9
01:30 1006 29.71 835 24.66 4.5 40.1 39 -8.3 17.1
01:35 1006 29.71 835 24.66 4.9 40.9 38 -8.4 16.9
01:40 1006 29.71 835 24.66 5.4 41.8 36 -8.6 16.6
01:45 1006 29.71 835 24.66 5.4 41.7 38 -7.9 17.7
01:50 1006 29.71 835 24.66 5 41 39 -7.9 17.8
01:55 1006 29.71 835 24.66 4.7 40.5 39 -8.1 17.4
02:00 1006 29.71 835 24.66 4.8 40.6 40 -7.8 18
02:05 1005 29.68 835 24.66 4.7 40.4 39 -8.2 17.2
02:10 1005 29.68 835 24.66 4.8 40.7 40 -7.6 18.2
02:15 1005 29.68 835 24.66 4.8 40.6 40 -7.8 17.9
02:20 1005 29.68 834 24.63 4.7 40.5 40 -7.9 17.9
02:25 1005 29.68 834 24.63 4.6 40.3 40 -7.7 18.1
02:30 1005 29.68 834 24.63 4.4 39.9 42 -7.4 18.8
02:35 1005 29.68 834 24.63 4.2 39.6 42 -7.5 18.5
02:40 1005 29.68 834 24.63 4.3 39.7 42 -7.6 18.3
02:45 1005 29.68 834 24.63 4.3 39.7 43 -7.2 19
02:50 1005 29.68 834 24.63 4.4 39.9 42 -7.5 18.5
02:55 1005 29.68 834 24.63 5 41 41 -7.1 19.2
03:00 1005 29.68 834 24.63 4.6 40.2 42 -7.4 18.7
03:05 1005 29.68 834 24.63 4.6 40.2 40 -7.9 17.8
03:10 1005 29.68 834 24.63 4.8 40.7 40 -7.7 18.1
03:15 1005 29.68 834 24.63 5.1 41.2 39 -7.9 17.8
03:20 1005 29.68 834 24.63 5.1 41.2 41 -7.2 19.1
03:25 1005 29.68 834 24.63 4.9 40.8 39 -7.8 18
03:30 1005 29.68 834 24.63 5 41 38 -8.2 17.2
03:35 1005 29.68 834 24.63 5.4 41.6 39 -7.4 18.7
03:40 1005 29.68 834 24.63 5.1 41.2 41 -7.1 19.3
03:45 1005 29.68 834 24.63 6 42.8 40 -6.5 20.3
03:50 1005 29.68 834 24.63 6.7 44 41 -5.6 22
03:55 1005 29.68 834 24.63 6.6 43.9 43 -5.1 22.9
04:00 1005 29.68 834 24.63 6 42.9 44 -5.2 22.6
04:05 1005 29.68 834 24.63 6.3 43.4 45 -4.9 23.2
04:10 1005 29.68 834 24.63 6.4 43.6 43 -5.2 22.6
04:15 1005 29.68 834 24.63 6.6 43.9 43 -4.9 23.1
04:20 1005 29.68 834 24.63 6.7 44.1 45 -4.5 23.9
04:25 1005 29.68 834 24.63 6.5 43.6 46 -4.4 24.1
04:30 1004 29.65 834 24.63 6.2 43.2 47 -4.3 24.2
04:35 1004 29.65 833 24.6 6.1 42.9 46 -4.8 23.4
04:40 1004 29.65 833 24.6 6.3 43.3 43 -5.4 22.2
04:45 1004 29.65 833 24.6 6.7 44.1 44 -4.5 23.8
04:50 1004 29.65 833 24.6 6.4 43.5 45 -4.7 23.6
04:55 1004 29.65 833 24.6 6.3 43.4 46 -4.5 23.9
05:00 1004 29.65 833 24.6 6.2 43.1 46 -4.7 23.5
05:05 1004 29.65 833 24.6 6.1 42.9 45 -5 23
05:10 1004 29.65 833 24.6 6.1 43 46 -4.8 23.4
05:15 1003 29.62 833 24.6 5.9 42.6 46 -4.8 23.3
05:20 1003 29.62 833 24.6 5.6 42.1 45 -5.3 22.5
05:25 1003 29.62 833 24.6 5.5 41.9 46 -5.1 22.9
05:30 1003 29.62 833 24.6 5.8 42.5 44 -5.4 22.3
05:35 1003 29.62 833 24.6 5.8 42.5 44 -5.4 22.3
05:40 1003 29.62 833 24.6 5.8 42.4 45 -5.3 22.4
05:45 1003 29.62 833 24.6 6 42.9 44 -5.4 22.3
05:50 1003 29.62 833 24.6 6 42.8 46 -4.8 23.4
05:55 1003 29.62 833 24.6 5.7 42.3 48 -4.5 23.9
06:00 1003 29.62 833 24.6 5.7 42.2 46 -5 23
06:05 1003 29.62 833 24.6 5.9 42.6 47 -4.6 23.6
06:10 1003 29.62 833 24.6 5.8 42.4 48 -4.3 24.2
06:15 1003 29.62 833 24.6 5.6 42.1 48 -4.6 23.7
06:20 1003 29.62 833 24.6 5.5 42 50 -4.2 24.5
06:25 1003 29.62 833 24.6 5.3 41.5 51 -4 24.9
06:30 1003 29.62 833 24.6 5 41.1 54 -3.6 25.6
06:35 1003 29.62 833 24.6 4.7 40.5 56 -3.2 26.3
06:40 1003 29.62 833 24.6 4.6 40.2 60 -2.5 27.5
06:45 1003 29.62 833 24.6 4.3 39.8 63 -2.1 28.2
06:50 1003 29.62 833 24.6 4.1 39.4 66 -1.6 29.1
06:55 1003 29.62 833 24.6 3.8 38.8 69 -1.3 29.7
07:00 1004 29.65 833 24.6 3.5 38.2 71 -1.3 29.7
07:05 1004 29.65 833 24.6 3.3 37.9 73 -1.1 30
07:10 1004 29.65 833 24.6 3.1 37.6 75 -1 30.3
07:15 1004 29.65 833 24.6 2.9 37.3 76 -0.8 30.5
07:20 1004 29.65 833 24.6 2.7 36.9 78 -0.7 30.8
07:25 1004 29.65 833 24.6 2.1 35.8 84 -0.3 31.5
07:30 1004 29.65 833 24.6 1.6 34.9 87 -0.4 31.3
07:35 1004 29.65 833 24.6 1.5 34.8 87 -0.5 31.2
07:40 1004 29.65 833 24.6 1.6 34.8 87 -0.4 31.3
07:45 1004 29.65 833 24.6 1.5 34.7 88 -0.3 31.5
07:50 1004 29.65 833 24.6 1.3 34.4 89 -0.3 31.5
07:55 1004 29.65 833 24.6 1.3 34.4 89 -0.3 31.4
08:00 1004 29.65 833 24.6 1.4 34.4 89 -0.3 31.5
08:05 1004 29.65 833 24.6 1.4 34.6 89 -0.2 31.6
08:10 1004 29.65 833 24.6 1.5 34.7 88 -0.2 31.6
08:15 1004 29.65 833 24.6 1.5 34.7 88 -0.2 31.7
08:20 1004 29.65 833 24.6 1.4 34.6 89 -0.2 31.7
08:25 1004 29.65 833 24.6 1.4 34.6 89 -0.2 31.7
08:30 1004 29.65 833 24.6 1.3 34.3 90 -0.2 31.6
08:35 1004 29.65 833 24.6 1.2 34.1 91 -0.2 31.6
08:40 1004 29.65 833 24.6 1.1 34 91 -0.2 31.6
08:45 1004 29.65 833 24.6 1.2 34.1 91 -0.2 31.7
08:50 1004 29.65 833 24.6 1.2 34.2 91 -0.2 31.7
08:55 1004 29.65 833 24.6 1.1 33.9 91 -0.2 31.6
09:00 1004 29.65 833 24.6 1 33.8 92 -0.2 31.6
09:05 1003 29.62 833 24.6 0.9 33.5 92 -0.3 31.5
09:10 1003 29.62 833 24.6 0.8 33.4 93 -0.3 31.5
09:15 1003 29.62 833 24.6 0.8 33.4 92 -0.3 31.4
09:20 1003 29.62 833 24.6 0.8 33.4 92 -0.3 31.5
09:25 1004 29.65 833 24.6 0.9 33.7 91 -0.3 31.4
09:30 1003 29.62 833 24.6 0.9 33.6 92 -0.3 31.5
09:35 1003 29.62 833 24.6 0.9 33.7 91 -0.3 31.4
09:40 1003 29.62 833 24.6 1.3 34.3 89 -0.3 31.5
09:45 1003 29.62 832 24.57 1.7 35 87 -0.3 31.5
09:50 1003 29.62 833 24.6 2.3 36.2 83 -0.2 31.6
09:55 1003 29.62 833 24.6 2.7 36.8 83 0.1 32.2
10:00 1003 29.62 832 24.57 2.7 36.9 82 0 32
10:05 1003 29.62 832 24.57 3.3 38 79 0 32.1
10:10 1003 29.62 832 24.57 3.4 38.2 78 0 32.1
10:15 1003 29.62 832 24.57 3.6 38.5 80 0.5 32.8
10:20 1003 29.62 832 24.57 3.4 38.2 78 0 32
10:25 1003 29.62 832 24.57 3.6 38.5 76 -0.3 31.5
10:30 1003 29.62 832 24.57 4.4 39.9 72 -0.1 31.7
10:35 1003 29.62 832 24.57 4.7 40.4 72 -0 32
10:40 1003 29.62 832 24.57 4.5 40.1 74 0.3 32.5
10:45 1003 29.62 832 24.57 3.9 39 77 0.2 32.3
10:50 1003 29.62 832 24.57 3.5 38.4 78 0.1 32.1
10:55 1003 29.62 832 24.57 3.6 38.4 77 -0.1 31.8
11:00 1003 29.62 832 24.57 3.4 38.2 81 0.4 32.7
11:05 1003 29.62 832 24.57 2.8 37 82 0.1 32.1
11:10 1003 29.62 832 24.57 2.8 37 83 0.1 32.2
11:15 1003 29.62 832 24.57 2.5 36.5 84 0.1 32.1
11:20 1003 29.62 832 24.57 2.3 36.2 85 0.1 32.1
11:25 1003 29.62 832 24.57 2.4 36.4 84 -0 31.9
11:30 1003 29.62 832 24.57 2.3 36.2 85 0 32.1
11:35 1003 29.62 832 24.57 2.2 36 85 0 32
11:40 1003 29.62 832 24.57 2.2 35.9 86 0 32.1
11:45 1003 29.62 832 24.57 2.3 36.1 86 0.1 32.3
11:50 1003 29.62 832 24.57 1.8 35.2 88 0 32
11:55 1002 29.59 832 24.57 1.4 34.6 91 0.1 32.2
12:00 1002 29.59 832 24.57 1.3 34.4 91 0 32.1
12:05 1002 29.59 831 24.54 1.7 35 89 0.1 32.1
12:10 1002 29.59 831 24.54 2 35.6 87 0.1 32.3
12:15 1002 29.59 831 24.54 2 35.6 88 0.2 32.4
12:20 1002 29.59 831 24.54 1.9 35.4 88 0.1 32.1
12:25 1002 29.59 831 24.54 1.9 35.5 87 0 32
12:30 1002 29.59 831 24.54 1.9 35.4 87 -0.1 31.9
12:35 1002 29.59 831 24.54 2 35.5 87 0 32
12:40 1002 29.59 831 24.54 2 35.5 87 0 32
12:45 1002 29.59 831 24.54 1.8 35.2 88 -0.1 31.9
12:50 1002 29.59 831 24.54 1.8 35.3 87 -0.1 31.9
12:55 1002 29.59 831 24.54 1.9 35.4 87 -0 32
13:00 1002 29.59 831 24.54 1.7 35 89 -0 32
13:05 1002 29.59 831 24.54 1.3 34.4 86 -0.8 30.6
13:10 1002 29.59 831 24.54 0.9 33.6 84 -1.5 29.3
13:15 1002 29.59 831 24.54 0.4 32.8 84 -2 28.4
13:20 1002 29.59 831 24.54 0 32.1 84 -2.3 27.9
13:25 1002 29.59 831 24.54 -0.2 31.6 84 -2.5 27.5
13:30 1002 29.59 831 24.54 -0.3 31.4 84 -2.7 27.2
13:35 1002 29.59 831 24.54 -0.5 31.1 84 -2.8 26.9
13:40 1002 29.59 831 24.54 -0.6 30.8 84 -3.1 26.5
13:45 1002 29.59 831 24.54 -0.7 30.7 83 -3.2 26.2
13:50 1002 29.59 831 24.54 -0.9 30.3 84 -3.3 26.1
13:55 1002 29.59 831 24.54 -1.1 30.1 85 -3.2 26.2
14:00 1002 29.59 831 24.54 -1.1 30 87 -3 26.6
14:05 1002 29.59 831 24.54 -1.5 29.3 87 -3.3 26
14:10 1002 29.59 831 24.54 -2.4 27.7 89 -3.9 24.9
14:15 1002 29.59 831 24.54 -2.9 26.9 91 -4.1 24.6
14:20 1002 29.59 831 24.54 -2.8 27 92 -4 24.8
14:25 1002 29.59 831 24.54 -2.8 27 91 -4 24.8
14:30 1002 29.59 831 24.54 -2.7 27.2 92 -3.9 25
14:35 1002 29.59 831 24.54 -2.7 27.2 90 -4 24.7
14:40 1002 29.59 831 24.54 -2.6 27.3 90 -4 24.9
14:45 1002 29.59 831 24.54 -2.8 27 89 -4.3 24.2
14:50 1002 29.59 832 24.57 -3.3 26.1 90 -4.7 23.5
14:55 1002 29.59 832 24.57 -3.5 25.6 90 -4.9 23.1
15:00 1002 29.59 832 24.57 -3.7 25.3 89 -5.4 22.3
15:05 1003 29.62 832 24.57 -4 24.8 90 -5.5 22.1
15:10 1003 29.62 832 24.57 -4.1 24.7 89 -5.7 21.8
15:15 1003 29.62 832 24.57 -4.2 24.4 88 -5.8 21.5
15:20 1003 29.62 832 24.57 -4.4 24.1 88 -6.1 21.1
15:25 1003 29.62 832 24.57 -4.5 23.8 90 -6 21.2
15:30 1003 29.62 832 24.57 -4.6 23.7 89 -6.1 21
15:35 1003 29.62 832 24.57 -4.8 23.4 90 -6.2 20.9
15:40 1003 29.62 832 24.57 -4.6 23.7 87 -6.5 20.4
15:45 1003 29.62 832 24.57 -4.8 23.3 89 -6.4 20.5
15:50 1003 29.62 832 24.57 -5.1 22.9 89 -6.6 20.1
15:55 1003 29.62 832 24.57 -5.4 22.3 91 -6.7 19.9
16:00 1003 29.62 832 24.57 -5.5 22 90 -6.9 19.6
16:05 1003 29.62 832 24.57 -5.5 22.2 90 -6.9 19.5
16:10 1003 29.62 832 24.57 -5.6 21.9 89 -7.1 19.1
16:15 1003 29.62 832 24.57 -5.7 21.7 89 -7.3 18.9
16:20 1003 29.62 832 24.57 -5.7 21.7 87 -7.5 18.5
16:25 1003 29.62 832 24.57 -5.9 21.3 88 -7.6 18.4
16:30 1003 29.62 832 24.57 -6 21.2 88 -7.6 18.3
16:35 1003 29.62 833 24.6 -6.1 21.1 87 -7.9 17.7
16:40 1003 29.62 833 24.6 -6.4 20.5 88 -8 17.6
16:45 1003 29.62 833 24.6 -6.5 20.4 87 -8.4 16.9
16:50 1003 29.62 833 24.6 -6.6 20.1 87 -8.4 16.8
16:55 1004 29.65 833 24.6 -6.7 20 88 -8.3 17
17:00 1004 29.65 833 24.6 -6.7 19.9 87 -8.5 16.6
17:05 1004 29.65 833 24.6 -6.7 19.9 87 -8.5 16.7
17:10 1004 29.65 833 24.6 -6.8 19.8 88 -8.5 16.7
17:15 1004 29.65 833 24.6 -6.8 19.7 88 -8.6 16.6
17:20 1004 29.65 833 24.6 -6.9 19.6 88 -8.6 16.6
17:25 1004 29.65 833 24.6 -7 19.5 87 -8.7 16.3
17:30 1004 29.65 833 24.6 -7.3 18.9 88 -8.9 16
17:35 1004 29.65 833 24.6 -7.4 18.7 88 -9 15.8
17:40 1004 29.65 833 24.6 -7.4 18.6 89 -8.9 16
17:45 1004 29.65 833 24.6 -7.4 18.8 89 -8.9 15.9
17:50 1004 29.65 833 24.6 -7.4 18.7 88 -9 15.8
17:55 1004 29.65 833 24.6 -7.4 18.7 88 -9 15.9
18:00 1004 29.65 833 24.6 -7.4 18.6 88 -9.2 15.5
18:05 1004 29.65 833 24.6 -7.7 18.2 89 -9.2 15.4
18:10 1004 29.65 834 24.63 -7.8 18 88 -9.4 15
18:15 1005 29.68 834 24.63 -7.9 17.7 89 -9.5 14.9
18:20 1005 29.68 834 24.63 -8 17.7 88 -9.6 14.7
18:25 1005 29.68 834 24.63 -8.1 17.4 88 -9.8 14.3
18:30 1005 29.68 834 24.63 -8.2 17.3 88 -9.8 14.4
18:35 1005 29.68 834 24.63 -8.3 17.1 89 -9.8 14.4
18:40 1005 29.68 834 24.63 -8.3 17.1 89 -9.8 14.3
18:45 1005 29.68 834 24.63 -8.4 16.8 89 -9.9 14.1
18:50 1005 29.68 834 24.63 -8.5 16.7 89 -10 14
18:55 1005 29.68 834 24.63 -8.6 16.5 89 -10.1 13.8
19:00 1005 29.68 834 24.63 -8.7 16.3 89 -10.2 13.6
19:05 1005 29.68 834 24.63 -8.8 16.2 88 -10.4 13.3
19:10 1005 29.68 834 24.63 -8.9 16 88 -10.5 13.2
19:15 1005 29.68 835 24.66 -9 15.7 89 -10.6 12.9
19:20 1005 29.68 835 24.66 -9.1 15.7 89 -10.6 12.9
19:25 1006 29.71 835 24.66 -9.2 15.4 89 -10.8 12.6
19:30 1006 29.71 835 24.66 -9.3 15.2 89 -10.8 12.5
19:35 1006 29.71 835 24.66 -9.3 15.3 88 -10.9 12.4
19:40 1006 29.71 835 24.66 -9.3 15.3 89 -10.7 12.7
19:45 1006 29.71 835 24.66 -9.3 15.3 89 -10.8 12.5
19:50 1006 29.71 835 24.66 -9.4 15.1 89 -10.8 12.5
19:55 1006 29.71 835 24.66 -9.5 14.8 90 -10.9 12.3
20:00 1006 29.71 835 24.66 -9.6 14.8 90 -11 12.3
20:05 1006 29.71 835 24.66 -9.5 14.8 89 -11.1 12.1
20:10 1006 29.71 835 24.66 -9.6 14.7 90 -11 12.2
20:15 1006 29.71 835 24.66 -9.6 14.8 89 -11 12.1
20:20 1006 29.71 835 24.66 -9.6 14.7 89 -11.1 12
20:25 1006 29.71 835 24.66 -9.6 14.7 89 -11.1 11.9
20:30 1006 29.71 835 24.66 -9.6 14.6 89 -11.1 12.1
20:35 1006 29.71 835 24.66 -9.6 14.7 89 -11.2 11.9
20:40 1006 29.71 835 24.66 -9.7 14.6 89 -11.2 11.9
20:45 1006 29.71 835 24.66 -9.7 14.5 89 -11.2 11.9
20:50 1006 29.71 835 24.66 -9.8 14.4 89 -11.2 11.9
20:55 1006 29.71 835 24.66 -9.8 14.5 90 -11.2 11.9
21:00 1006 29.71 835 24.66 -9.8 14.4 89 -11.2 11.8
21:05 1006 29.71 835 24.66 -9.9 14.2 89 -11.4 11.6
21:10 1006 29.71 835 24.66 -9.9 14.1 89 -11.4 11.6
21:15 1006 29.71 835 24.66 -10 14.1 89 -11.4 11.5
21:20 1006 29.71 835 24.66 -10 14 89 -11.5 11.3
21:25 1006 29.71 835 24.66 -10.1 13.9 88 -11.7 11
21:30 1006 29.71 836 24.69 -10.1 13.8 88 -11.7 11
21:35 1006 29.71 836 24.69 -10.2 13.6 88 -11.8 10.7
21:40 1006 29.71 835 24.66 -10.4 13.4 88 -11.9 10.5
21:45 1006 29.71 835 24.66 -10.4 13.4 88 -12 10.5
21:50 1006 29.71 835 24.66 -10.4 13.3 88 -12 10.3
21:55 1006 29.71 836 24.69 -10.5 13.1 88 -12.1 10.3
22:00 1006 29.71 836 24.69 -10.5 13.1 88 -12.1 10.2
22:05 1006 29.71 836 24.69 -10.5 13 88 -12.1 10.1
22:10 1006 29.71 835 24.66 -10.5 13.1 88 -12.1 10.2
22:15 1006 29.71 835 24.66 -10.5 13.1 87 -12.2 10
22:20 1006 29.71 836 24.69 -10.5 13.1 87 -12.3 9.9
22:25 1006 29.71 836 24.69 -10.6 13 88 -12.2 10
22:30 1006 29.71 836 24.69 -10.6 13 86 -12.4 9.6
22:35 1006 29.71 836 24.69 -10.7 12.7 87 -12.5 9.5
22:40 1006 29.71 836 24.69 -10.9 12.4 87 -12.7 9.1
22:45 1006 29.71 836 24.69 -11 12.2 87 -12.8 9
22:50 1006 29.71 836 24.69 -11 12.1 87 -12.9 8.8
22:55 1006 29.71 835 24.66 -11 12.1 86 -12.9 8.8
23:00 1006 29.71 835 24.66 -11.1 11.9 87 -12.9 8.8
23:05 1006 29.71 835 24.66 -11.2 11.8 87 -13 8.6
23:10 1006 29.71 836 24.69 -11.3 11.7 88 -13 8.7
23:15 1006 29.71 836 24.69 -11.3 11.6 87 -13.1 8.5
23:20 1006 29.71 836 24.69 -11.4 11.4 88 -13.1 8.4
23:25 1006 29.71 836 24.69 -11.4 11.4 87 -13.2 8.3
23:30 1006 29.71 836 24.69 -11.5 11.3 87 -13.2 8.2
23:35 1006 29.71 836 24.69 -11.6 11.2 87 -13.3 8
23:40 1006 29.71 836 24.69 -11.6 11.1 88 -13.3 8.1
23:45 1007 29.74 836 24.69 -11.6 11.1 87 -13.4 7.8
23:50 1007 29.74 836 24.69 -11.7 11 87 -13.5 7.7
23:55 1007 29.74 836 24.69 -11.7 10.9 86 -13.6 7.5
24:00 1007 29.74 836 24.69 -11.7 10.9 86 -13.6 7.5